Terminal Aerodrome Forecast
Issued by NWS Central Illinois

Home | Current Version | Previous Version | Text Only | Print | Product List | Glossary On
Versions: 1 2 3 4 5 6 7 8 9 10 11 12 13 14 15 16 17 18 19 20 21 22
000
FTUS43 KILX 211100
TAFPIA
TAF
KPIA 211120Z 2112/2212 28007KT P6SM SKC
     FM211400 32012G20KT P6SM SCT040
      TEMPO 2118/2122 BKN040
     FM212300 36005KT P6SM SCT040
     FM220300 36004KT P6SM SKC=

USA.gov is the U.S. government's official web portal to all federal, state and local government web resources and services.